Pagina principale
METAR-TAF:

METAR-TAF

Aeroporti :

Aeroporto di Londra-Ashford

Lydd, Inghilterra

latitudine: 50-57N, longitudine: 000-56E, altezza: 3 m

Osservazione

Il bollettino è stato emesso 40 minuti fa, alle 10:50 UTC
Vento 19 kt da ovest
Temperature 6°C
Umidità 75%
Pressione 998 hPa
Visibilità 10 km o più
Poco nuvoloso ad un'altezza di 1500 ft

METAR: EGMD 281050Z 27019KT 9999 FEW015 06/02 Q0998

Ora: 11:30 (11:30 UTC)

Previsione

Il bollettino è stato emesso 3 ore e 32 minuti fa, alle 07:58 UTC
Previsione valida dal 28 alle 09 UTC al 28 alle 18 UTC
Vento 18 kt da ovest
Visibilità 10 km o più
Poco nuvoloso ad un'altezza di 1800 ft
Probabilità 30% :
Temporaneamente
dal 28 alle 09 UTC al 28 alle 10 UTC
Vento 18 kt da ovest con raffiche fino a 28 kt

TAF: EGMD 280758Z 2809/2818 26018KT 9999 FEW018 PROB30 TEMPO 2809/2810 26018G28KT

Osservazioni e previsioni meteorologiche di più di 4000 aeroporti (messaggi METAR e TAF).

Le stazioni disponibili sono rappresentate dai dischi gialli e rossi sulla carta.

Puntare il mouse per vedere il nome della stazione.

Clicca sopra per visualizzare le osservazioni e previsioni meteorologiche.

Per cambiare la mappa : fare clic sui pulsanti verdi con una croce nera per ingrandire, il pulsante verde con un trattino per diminuire, o sulla freccia verde per le mappe adiacenti.


METAR-TAF: